sensor_id;sensor_type;location;lat;lon;timestamp;P1;durP1;ratioP1;P2;durP2;ratioP2
7527;SDS011;3805;49.006;8.514;2023-12-20T00:02:23;6.80;;;6.20;;
7527;SDS011;3805;49.006;8.514;2023-12-20T00:04:53;6.53;;;5.97;;
7527;SDS011;3805;49.006;8.514;2023-12-20T00:07:21;8.40;;;6.30;;
7527;SDS011;3805;49.006;8.514;2023-12-20T00:09:50;9.37;;;7.00;;
7527;SDS011;3805;49.006;8.514;2023-12-20T00:12:18;7.37;;;6.60;;
7527;SDS011;3805;49.006;8.514;2023-12-20T00:14:46;6.23;;;5.83;;
7527;SDS011;3805;49.006;8.514;2023-12-20T00:17:14;5.00;;;4.60;;
7527;SDS011;3805;49.006;8.514;2023-12-20T00:19:43;6.13;;;5.40;;
7527;SDS011;3805;49.006;8.514;2023-12-20T00:22:12;6.17;;;5.60;;
7527;SDS011;3805;49.006;8.514;2023-12-20T00:27:46;6.10;;;5.50;;
7527;SDS011;3805;49.006;8.514;2023-12-20T00:30:15;6.27;;;5.67;;
7527;SDS011;3805;49.006;8.514;2023-12-20T00:32:43;6.43;;;5.83;;
7527;SDS011;3805;49.006;8.514;2023-12-20T00:35:13;7.70;;;6.70;;
7527;SDS011;3805;49.006;8.514;2023-12-20T00:37:43;8.73;;;5.70;;
7527;SDS011;3805;49.006;8.514;2023-12-20T00:40:11;7.90;;;6.23;;
7527;SDS011;3805;49.006;8.514;2023-12-20T00:42:40;7.40;;;6.67;;
7527;SDS011;3805;49.006;8.514;2023-12-20T00:45:08;5.97;;;5.47;;
7527;SDS011;3805;49.006;8.514;2023-12-20T00:47:37;6.57;;;5.97;;
7527;SDS011;3805;49.006;8.514;2023-12-20T00:50:06;6.67;;;5.97;;
7527;SDS011;3805;49.006;8.514;2023-12-20T00:52:35;6.90;;;6.20;;
7527;SDS011;3805;49.006;8.514;2023-12-20T00:55:05;6.97;;;6.37;;
7527;SDS011;3805;49.006;8.514;2023-12-20T00:57:34;9.20;;;6.43;;
7527;SDS011;3805;49.006;8.514;2023-12-20T01:00:03;7.63;;;6.93;;
7527;SDS011;3805;49.006;8.514;2023-12-20T01:02:32;7.20;;;6.50;;
7527;SDS011;3805;49.006;8.514;2023-12-20T01:05:00;6.43;;;5.63;;
7527;SDS011;3805;49.006;8.514;2023-12-20T01:07:29;7.00;;;6.40;;
7527;SDS011;3805;49.006;8.514;2023-12-20T01:09:57;7.17;;;6.47;;
7527;SDS011;3805;49.006;8.514;2023-12-20T01:12:27;7.27;;;6.50;;
7527;SDS011;3805;49.006;8.514;2023-12-20T01:14:55;6.33;;;5.73;;
7527;SDS011;3805;49.006;8.514;2023-12-20T01:17:24;6.60;;;6.00;;
7527;SDS011;3805;49.006;8.514;2023-12-20T01:19:56;6.17;;;5.57;;
7527;SDS011;3805;49.006;8.514;2023-12-20T01:22:25;6.13;;;5.63;;
7527;SDS011;3805;49.006;8.514;2023-12-20T01:24:53;6.37;;;5.77;;
7527;SDS011;3805;49.006;8.514;2023-12-20T01:27:22;6.30;;;5.70;;
7527;SDS011;3805;49.006;8.514;2023-12-20T01:29:52;9.67;;;6.20;;
7527;SDS011;3805;49.006;8.514;2023-12-20T01:32:21;5.70;;;5.20;;
7527;SDS011;3805;49.006;8.514;2023-12-20T01:34:49;6.70;;;6.00;;
7527;SDS011;3805;49.006;8.514;2023-12-20T01:37:17;6.03;;;5.63;;
7527;SDS011;3805;49.006;8.514;2023-12-20T01:39:45;6.67;;;6.10;;
7527;SDS011;3805;49.006;8.514;2023-12-20T01:42:13;5.60;;;4.90;;
7527;SDS011;3805;49.006;8.514;2023-12-20T01:44:41;4.97;;;4.60;;
7527;SDS011;3805;49.006;8.514;2023-12-20T01:47:11;6.13;;;4.93;;
7527;SDS011;3805;49.006;8.514;2023-12-20T01:49:40;7.97;;;5.53;;
7527;SDS011;3805;49.006;8.514;2023-12-20T01:52:08;6.33;;;5.83;;
7527;SDS011;3805;49.006;8.514;2023-12-20T01:54:40;5.60;;;5.03;;
7527;SDS011;3805;49.006;8.514;2023-12-20T01:57:08;5.23;;;4.83;;
7527;SDS011;3805;49.006;8.514;2023-12-20T01:59:37;5.70;;;5.17;;
7527;SDS011;3805;49.006;8.514;2023-12-20T02:02:07;5.57;;;5.07;;
7527;SDS011;3805;49.006;8.514;2023-12-20T02:04:37;6.40;;;5.83;;
7527;SDS011;3805;49.006;8.514;2023-12-20T02:07:06;6.10;;;5.60;;
7527;SDS011;3805;49.006;8.514;2023-12-20T02:09:35;4.87;;;4.43;;
7527;SDS011;3805;49.006;8.514;2023-12-20T02:12:04;5.40;;;4.90;;
7527;SDS011;3805;49.006;8.514;2023-12-20T02:14:33;5.20;;;4.57;;
7527;SDS011;3805;49.006;8.514;2023-12-20T02:17:04;5.33;;;4.93;;
7527;SDS011;3805;49.006;8.514;2023-12-20T02:19:41;5.70;;;5.20;;
7527;SDS011;3805;49.006;8.514;2023-12-20T02:22:12;5.87;;;5.37;;
7527;SDS011;3805;49.006;8.514;2023-12-20T02:24:40;6.60;;;4.73;;
7527;SDS011;3805;49.006;8.514;2023-12-20T02:27:09;4.70;;;4.40;;
7527;SDS011;3805;49.006;8.514;2023-12-20T02:29:37;4.67;;;4.37;;
7527;SDS011;3805;49.006;8.514;2023-12-20T02:32:05;7.33;;;4.30;;
7527;SDS011;3805;49.006;8.514;2023-12-20T02:34:39;6.60;;;6.00;;
7527;SDS011;3805;49.006;8.514;2023-12-20T02:37:07;6.03;;;5.53;;
7527;SDS011;3805;49.006;8.514;2023-12-20T02:39:37;7.87;;;5.10;;
7527;SDS011;3805;49.006;8.514;2023-12-20T02:42:05;5.13;;;4.73;;
7527;SDS011;3805;49.006;8.514;2023-12-20T02:44:44;5.83;;;5.30;;
7527;SDS011;3805;49.006;8.514;2023-12-20T02:47:12;5.53;;;5.03;;
7527;SDS011;3805;49.006;8.514;2023-12-20T02:49:40;6.20;;;5.17;;
7527;SDS011;3805;49.006;8.514;2023-12-20T02:52:10;5.43;;;5.03;;
7527;SDS011;3805;49.006;8.514;2023-12-20T02:54:40;4.80;;;4.50;;
7527;SDS011;3805;49.006;8.514;2023-12-20T02:57:11;5.93;;;5.43;;
7527;SDS011;3805;49.006;8.514;2023-12-20T02:59:40;6.73;;;6.00;;
7527;SDS011;3805;49.006;8.514;2023-12-20T03:02:08;5.00;;;4.60;;
7527;SDS011;3805;49.006;8.514;2023-12-20T03:04:39;6.17;;;5.57;;
7527;SDS011;3805;49.006;8.514;2023-12-20T03:07:07;5.93;;;5.07;;
7527;SDS011;3805;49.006;8.514;2023-12-20T03:09:36;6.30;;;5.70;;
7527;SDS011;3805;49.006;8.514;2023-12-20T03:12:27;6.30;;;5.63;;
7527;SDS011;3805;49.006;8.514;2023-12-20T03:14:55;6.07;;;5.57;;
7527;SDS011;3805;49.006;8.514;2023-12-20T03:17:26;5.73;;;5.20;;
7527;SDS011;3805;49.006;8.514;2023-12-20T03:19:55;6.43;;;5.83;;
7527;SDS011;3805;49.006;8.514;2023-12-20T03:22:23;6.30;;;5.80;;
7527;SDS011;3805;49.006;8.514;2023-12-20T03:24:51;6.37;;;5.70;;
7527;SDS011;3805;49.006;8.514;2023-12-20T03:27:19;5.13;;;4.73;;
7527;SDS011;3805;49.006;8.514;2023-12-20T03:29:49;6.10;;;5.53;;
7527;SDS011;3805;49.006;8.514;2023-12-20T03:32:17;6.17;;;5.37;;
7527;SDS011;3805;49.006;8.514;2023-12-20T03:34:46;6.50;;;5.90;;
7527;SDS011;3805;49.006;8.514;2023-12-20T03:37:15;6.57;;;5.97;;
7527;SDS011;3805;49.006;8.514;2023-12-20T03:39:44;5.80;;;5.30;;
7527;SDS011;3805;49.006;8.514;2023-12-20T03:42:12;6.00;;;5.50;;
7527;SDS011;3805;49.006;8.514;2023-12-20T03:44:40;5.60;;;5.13;;
7527;SDS011;3805;49.006;8.514;2023-12-20T03:47:10;6.03;;;5.43;;
7527;SDS011;3805;49.006;8.514;2023-12-20T03:49:38;6.33;;;5.83;;
7527;SDS011;3805;49.006;8.514;2023-12-20T03:52:06;5.30;;;4.90;;
7527;SDS011;3805;49.006;8.514;2023-12-20T03:54:35;5.33;;;4.83;;
7527;SDS011;3805;49.006;8.514;2023-12-20T03:57:03;5.67;;;5.23;;
7527;SDS011;3805;49.006;8.514;2023-12-20T03:59:34;5.40;;;4.90;;
7527;SDS011;3805;49.006;8.514;2023-12-20T04:02:03;5.90;;;5.40;;
7527;SDS011;3805;49.006;8.514;2023-12-20T04:04:32;6.00;;;5.60;;
7527;SDS011;3805;49.006;8.514;2023-12-20T04:07:01;5.00;;;4.60;;
7527;SDS011;3805;49.006;8.514;2023-12-20T04:09:29;5.83;;;5.33;;
7527;SDS011;3805;49.006;8.514;2023-12-20T04:11:57;5.63;;;5.13;;
7527;SDS011;3805;49.006;8.514;2023-12-20T04:14:29;5.50;;;5.00;;
7527;SDS011;3805;49.006;8.514;2023-12-20T04:17:11;6.23;;;5.00;;
7527;SDS011;3805;49.006;8.514;2023-12-20T04:19:44;5.77;;;4.70;;
7527;SDS011;3805;49.006;8.514;2023-12-20T04:22:18;5.43;;;5.03;;
7527;SDS011;3805;49.006;8.514;2023-12-20T04:24:47;5.87;;;5.37;;
7527;SDS011;3805;49.006;8.514;2023-12-20T04:27:15;5.47;;;4.93;;
7527;SDS011;3805;49.006;8.514;2023-12-20T04:29:43;5.33;;;4.90;;
7527;SDS011;3805;49.006;8.514;2023-12-20T04:32:11;4.70;;;4.30;;
7527;SDS011;3805;49.006;8.514;2023-12-20T04:34:40;5.80;;;5.30;;
7527;SDS011;3805;49.006;8.514;2023-12-20T04:37:09;5.07;;;4.67;;
7527;SDS011;3805;49.006;8.514;2023-12-20T04:39:37;6.17;;;4.43;;
7527;SDS011;3805;49.006;8.514;2023-12-20T04:42:07;4.93;;;4.53;;
7527;SDS011;3805;49.006;8.514;2023-12-20T04:44:35;5.10;;;4.70;;
7527;SDS011;3805;49.006;8.514;2023-12-20T04:47:04;5.97;;;5.37;;
7527;SDS011;3805;49.006;8.514;2023-12-20T04:49:32;5.10;;;4.63;;
7527;SDS011;3805;49.006;8.514;2023-12-20T04:52:02;6.13;;;5.40;;
7527;SDS011;3805;49.006;8.514;2023-12-20T04:54:30;4.90;;;4.50;;
7527;SDS011;3805;49.006;8.514;2023-12-20T04:56:59;5.93;;;5.53;;
7527;SDS011;3805;49.006;8.514;2023-12-20T04:59:27;6.13;;;5.63;;
7527;SDS011;3805;49.006;8.514;2023-12-20T05:01:55;5.20;;;4.70;;
7527;SDS011;3805;49.006;8.514;2023-12-20T05:04:24;5.87;;;5.47;;
7527;SDS011;3805;49.006;8.514;2023-12-20T05:06:53;6.73;;;5.87;;
7527;SDS011;3805;49.006;8.514;2023-12-20T05:09:22;7.67;;;5.97;;
7527;SDS011;3805;49.006;8.514;2023-12-20T05:11:51;6.17;;;5.57;;
7527;SDS011;3805;49.006;8.514;2023-12-20T05:14:19;6.50;;;6.00;;
7527;SDS011;3805;49.006;8.514;2023-12-20T05:16:47;6.17;;;5.67;;
7527;SDS011;3805;49.006;8.514;2023-12-20T05:19:15;6.57;;;6.00;;
7527;SDS011;3805;49.006;8.514;2023-12-20T05:21:44;6.17;;;5.67;;
7527;SDS011;3805;49.006;8.514;2023-12-20T05:24:12;5.43;;;5.03;;
7527;SDS011;3805;49.006;8.514;2023-12-20T05:26:42;6.60;;;6.00;;
7527;SDS011;3805;49.006;8.514;2023-12-20T05:29:11;6.60;;;5.80;;
7527;SDS011;3805;49.006;8.514;2023-12-20T05:31:39;6.97;;;6.17;;
7527;SDS011;3805;49.006;8.514;2023-12-20T05:34:07;6.60;;;6.00;;
7527;SDS011;3805;49.006;8.514;2023-12-20T05:36:36;5.87;;;5.40;;
7527;SDS011;3805;49.006;8.514;2023-12-20T05:39:05;6.53;;;5.83;;
7527;SDS011;3805;49.006;8.514;2023-12-20T05:41:34;7.17;;;6.57;;
7527;SDS011;3805;49.006;8.514;2023-12-20T05:44:04;7.67;;;6.10;;
7527;SDS011;3805;49.006;8.514;2023-12-20T05:46:32;6.60;;;6.00;;
7527;SDS011;3805;49.006;8.514;2023-12-20T05:49:00;6.57;;;5.97;;
7527;SDS011;3805;49.006;8.514;2023-12-20T05:51:29;6.50;;;5.90;;
7527;SDS011;3805;49.006;8.514;2023-12-20T05:53:57;6.37;;;5.77;;
7527;SDS011;3805;49.006;8.514;2023-12-20T05:56:25;7.77;;;7.07;;
7527;SDS011;3805;49.006;8.514;2023-12-20T05:58:54;6.90;;;6.30;;
7527;SDS011;3805;49.006;8.514;2023-12-20T06:01:24;6.20;;;5.70;;
7527;SDS011;3805;49.006;8.514;2023-12-20T06:03:52;8.13;;;7.33;;
7527;SDS011;3805;49.006;8.514;2023-12-20T06:06:20;7.53;;;6.83;;
7527;SDS011;3805;49.006;8.514;2023-12-20T06:08:49;7.20;;;6.50;;
7527;SDS011;3805;49.006;8.514;2023-12-20T06:11:17;7.30;;;6.53;;
7527;SDS011;3805;49.006;8.514;2023-12-20T06:13:45;7.03;;;6.37;;
7527;SDS011;3805;49.006;8.514;2023-12-20T06:16:13;7.40;;;6.70;;
7527;SDS011;3805;49.006;8.514;2023-12-20T06:18:43;5.40;;;5.00;;
7527;SDS011;3805;49.006;8.514;2023-12-20T06:21:11;5.97;;;5.47;;
7527;SDS011;3805;49.006;8.514;2023-12-20T06:23:41;6.10;;;5.60;;
7527;SDS011;3805;49.006;8.514;2023-12-20T06:26:09;6.60;;;6.00;;
7527;SDS011;3805;49.006;8.514;2023-12-20T06:28:37;7.33;;;6.63;;
7527;SDS011;3805;49.006;8.514;2023-12-20T06:31:08;7.60;;;6.90;;
7527;SDS011;3805;49.006;8.514;2023-12-20T06:33:36;6.27;;;5.70;;
7527;SDS011;3805;49.006;8.514;2023-12-20T06:36:10;6.40;;;5.63;;
7527;SDS011;3805;49.006;8.514;2023-12-20T06:38:39;8.47;;;7.40;;
7527;SDS011;3805;49.006;8.514;2023-12-20T06:41:10;6.67;;;6.17;;
7527;SDS011;3805;49.006;8.514;2023-12-20T06:43:40;6.63;;;6.13;;
7527;SDS011;3805;49.006;8.514;2023-12-20T06:46:16;7.13;;;6.43;;
7527;SDS011;3805;49.006;8.514;2023-12-20T06:48:45;6.87;;;6.20;;
7527;SDS011;3805;49.006;8.514;2023-12-20T06:51:15;7.20;;;6.60;;
7527;SDS011;3805;49.006;8.514;2023-12-20T06:53:44;5.93;;;5.43;;
7527;SDS011;3805;49.006;8.514;2023-12-20T06:56:12;7.93;;;7.27;;
7527;SDS011;3805;49.006;8.514;2023-12-20T06:58:45;6.80;;;6.10;;
7527;SDS011;3805;49.006;8.514;2023-12-20T07:01:13;7.10;;;6.40;;
7527;SDS011;3805;49.006;8.514;2023-12-20T07:03:42;8.03;;;5.50;;
7527;SDS011;3805;49.006;8.514;2023-12-20T07:06:11;6.90;;;6.20;;
7527;SDS011;3805;49.006;8.514;2023-12-20T07:08:41;7.00;;;6.40;;
7527;SDS011;3805;49.006;8.514;2023-12-20T07:11:10;9.10;;;4.97;;
7527;SDS011;3805;49.006;8.514;2023-12-20T07:13:38;6.70;;;5.60;;
7527;SDS011;3805;49.006;8.514;2023-12-20T07:16:06;6.00;;;5.50;;
7527;SDS011;3805;49.006;8.514;2023-12-20T07:18:35;6.77;;;6.13;;
7527;SDS011;3805;49.006;8.514;2023-12-20T07:21:03;6.93;;;5.47;;
7527;SDS011;3805;49.006;8.514;2023-12-20T07:23:31;5.83;;;5.33;;
7527;SDS011;3805;49.006;8.514;2023-12-20T07:26:01;6.77;;;6.20;;
7527;SDS011;3805;49.006;8.514;2023-12-20T07:28:30;6.00;;;5.50;;
7527;SDS011;3805;49.006;8.514;2023-12-20T07:30:59;5.93;;;5.43;;
7527;SDS011;3805;49.006;8.514;2023-12-20T07:33:27;5.10;;;4.70;;
7527;SDS011;3805;49.006;8.514;2023-12-20T07:36:01;24.27;;;15.00;;
7527;SDS011;3805;49.006;8.514;2023-12-20T07:38:30;23.63;;;15.63;;
7527;SDS011;3805;49.006;8.514;2023-12-20T07:40:58;17.20;;;14.10;;
7527;SDS011;3805;49.006;8.514;2023-12-20T07:43:28;28.30;;;21.10;;
7527;SDS011;3805;49.006;8.514;2023-12-20T07:45:56;18.23;;;12.60;;
7527;SDS011;3805;49.006;8.514;2023-12-20T07:48:24;14.23;;;11.07;;
7527;SDS011;3805;49.006;8.514;2023-12-20T07:50:53;13.20;;;11.00;;
7527;SDS011;3805;49.006;8.514;2023-12-20T07:53:21;10.00;;;7.63;;
7527;SDS011;3805;49.006;8.514;2023-12-20T07:55:49;6.70;;;6.20;;
7527;SDS011;3805;49.006;8.514;2023-12-20T07:58:19;5.33;;;4.93;;
7527;SDS011;3805;49.006;8.514;2023-12-20T08:00:52;5.83;;;5.10;;
7527;SDS011;3805;49.006;8.514;2023-12-20T08:03:20;5.20;;;4.80;;
7527;SDS011;3805;49.006;8.514;2023-12-20T08:05:49;6.50;;;5.90;;
7527;SDS011;3805;49.006;8.514;2023-12-20T08:08:17;6.47;;;5.83;;
7527;SDS011;3805;49.006;8.514;2023-12-20T08:10:45;6.03;;;5.40;;
7527;SDS011;3805;49.006;8.514;2023-12-20T08:13:13;6.43;;;5.83;;
7527;SDS011;3805;49.006;8.514;2023-12-20T08:15:42;7.17;;;5.70;;
7527;SDS011;3805;49.006;8.514;2023-12-20T08:18:12;5.70;;;5.30;;
7527;SDS011;3805;49.006;8.514;2023-12-20T08:20:40;6.90;;;6.40;;
7527;SDS011;3805;49.006;8.514;2023-12-20T08:23:09;6.23;;;5.73;;
7527;SDS011;3805;49.006;8.514;2023-12-20T08:25:37;6.10;;;5.50;;
7527;SDS011;3805;49.006;8.514;2023-12-20T08:28:05;6.73;;;6.13;;
7527;SDS011;3805;49.006;8.514;2023-12-20T08:30:34;10.60;;;5.23;;
7527;SDS011;3805;49.006;8.514;2023-12-20T08:33:02;5.83;;;5.37;;
7527;SDS011;3805;49.006;8.514;2023-12-20T08:35:32;7.37;;;5.30;;
7527;SDS011;3805;49.006;8.514;2023-12-20T08:38:01;5.63;;;5.07;;
7527;SDS011;3805;49.006;8.514;2023-12-20T08:40:30;5.90;;;5.50;;
7527;SDS011;3805;49.006;8.514;2023-12-20T08:42:58;5.17;;;4.67;;
7527;SDS011;3805;49.006;8.514;2023-12-20T08:45:26;6.03;;;5.53;;
7527;SDS011;3805;49.006;8.514;2023-12-20T08:47:55;6.40;;;5.80;;
7527;SDS011;3805;49.006;8.514;2023-12-20T08:50:28;6.13;;;4.50;;
7527;SDS011;3805;49.006;8.514;2023-12-20T08:52:58;5.40;;;5.00;;
7527;SDS011;3805;49.006;8.514;2023-12-20T08:55:26;4.87;;;4.47;;
7527;SDS011;3805;49.006;8.514;2023-12-20T08:57:56;5.07;;;4.67;;
7527;SDS011;3805;49.006;8.514;2023-12-20T09:00:24;6.27;;;4.43;;
7527;SDS011;3805;49.006;8.514;2023-12-20T09:02:54;7.20;;;4.47;;
7527;SDS011;3805;49.006;8.514;2023-12-20T09:05:22;4.80;;;4.40;;
7527;SDS011;3805;49.006;8.514;2023-12-20T09:07:51;6.67;;;4.37;;
7527;SDS011;3805;49.006;8.514;2023-12-20T09:10:20;4.07;;;3.63;;
7527;SDS011;3805;49.006;8.514;2023-12-20T09:12:49;3.70;;;3.37;;
7527;SDS011;3805;49.006;8.514;2023-12-20T09:15:18;4.50;;;3.50;;
7527;SDS011;3805;49.006;8.514;2023-12-20T09:17:46;6.03;;;4.40;;
7527;SDS011;3805;49.006;8.514;2023-12-20T09:20:15;4.80;;;3.30;;
7527;SDS011;3805;49.006;8.514;2023-12-20T09:22:44;4.67;;;3.70;;
7527;SDS011;3805;49.006;8.514;2023-12-20T09:25:12;3.80;;;3.50;;
7527;SDS011;3805;49.006;8.514;2023-12-20T09:27:43;5.83;;;3.37;;
7527;SDS011;3805;49.006;8.514;2023-12-20T09:30:12;5.27;;;3.70;;
7527;SDS011;3805;49.006;8.514;2023-12-20T09:32:53;3.40;;;2.97;;
7527;SDS011;3805;49.006;8.514;2023-12-20T09:35:22;4.70;;;3.07;;
7527;SDS011;3805;49.006;8.514;2023-12-20T09:37:50;3.27;;;3.00;;
7527;SDS011;3805;49.006;8.514;2023-12-20T09:40:19;4.80;;;3.50;;
7527;SDS011;3805;49.006;8.514;2023-12-20T09:42:50;4.83;;;3.40;;
7527;SDS011;3805;49.006;8.514;2023-12-20T09:45:24;4.00;;;3.70;;
7527;SDS011;3805;49.006;8.514;2023-12-20T09:47:53;3.47;;;3.17;;
7527;SDS011;3805;49.006;8.514;2023-12-20T09:50:22;4.37;;;3.90;;
7527;SDS011;3805;49.006;8.514;2023-12-20T09:52:51;11.00;;;4.47;;
7527;SDS011;3805;49.006;8.514;2023-12-20T09:55:23;4.37;;;4.00;;
7527;SDS011;3805;49.006;8.514;2023-12-20T09:57:54;5.90;;;4.77;;
7527;SDS011;3805;49.006;8.514;2023-12-20T10:00:23;6.30;;;4.40;;
7527;SDS011;3805;49.006;8.514;2023-12-20T10:02:55;4.67;;;3.73;;
7527;SDS011;3805;49.006;8.514;2023-12-20T10:05:26;4.80;;;3.50;;
7527;SDS011;3805;49.006;8.514;2023-12-20T10:07:55;4.93;;;4.53;;
7527;SDS011;3805;49.006;8.514;2023-12-20T10:10:24;7.40;;;4.30;;
7527;SDS011;3805;49.006;8.514;2023-12-20T10:13:09;4.83;;;4.30;;
7527;SDS011;3805;49.006;8.514;2023-12-20T10:15:38;5.00;;;3.90;;
7527;SDS011;3805;49.006;8.514;2023-12-20T10:18:08;5.73;;;4.20;;
7527;SDS011;3805;49.006;8.514;2023-12-20T10:20:39;6.20;;;5.00;;
7527;SDS011;3805;49.006;8.514;2023-12-20T10:23:08;7.50;;;3.90;;
7527;SDS011;3805;49.006;8.514;2023-12-20T10:25:37;6.70;;;3.80;;
7527;SDS011;3805;49.006;8.514;2023-12-20T10:28:10;7.00;;;4.47;;
7527;SDS011;3805;49.006;8.514;2023-12-20T10:30:39;5.70;;;3.90;;
7527;SDS011;3805;49.006;8.514;2023-12-20T10:33:09;6.70;;;4.10;;
7527;SDS011;3805;49.006;8.514;2023-12-20T10:35:38;6.20;;;4.37;;
7527;SDS011;3805;49.006;8.514;2023-12-20T10:38:12;4.77;;;4.37;;
7527;SDS011;3805;49.006;8.514;2023-12-20T10:40:41;4.80;;;4.27;;
7527;SDS011;3805;49.006;8.514;2023-12-20T10:43:12;5.70;;;4.40;;
7527;SDS011;3805;49.006;8.514;2023-12-20T10:45:41;6.50;;;4.70;;
7527;SDS011;3805;49.006;8.514;2023-12-20T10:48:10;4.23;;;3.83;;
7527;SDS011;3805;49.006;8.514;2023-12-20T10:50:39;4.97;;;4.47;;
7527;SDS011;3805;49.006;8.514;2023-12-20T10:53:09;5.70;;;4.07;;
7527;SDS011;3805;49.006;8.514;2023-12-20T10:55:39;5.53;;;4.90;;
7527;SDS011;3805;49.006;8.514;2023-12-20T10:58:07;10.40;;;4.47;;
7527;SDS011;3805;49.006;8.514;2023-12-20T11:00:38;7.20;;;4.07;;
7527;SDS011;3805;49.006;8.514;2023-12-20T11:03:08;4.80;;;4.30;;
7527;SDS011;3805;49.006;8.514;2023-12-20T11:05:38;11.70;;;4.47;;
7527;SDS011;3805;49.006;8.514;2023-12-20T11:08:14;5.60;;;4.00;;
7527;SDS011;3805;49.006;8.514;2023-12-20T11:10:55;6.47;;;4.40;;
7527;SDS011;3805;49.006;8.514;2023-12-20T11:13:26;5.60;;;4.63;;
7527;SDS011;3805;49.006;8.514;2023-12-20T11:15:59;5.20;;;4.70;;
7527;SDS011;3805;49.006;8.514;2023-12-20T11:18:28;8.67;;;4.50;;
7527;SDS011;3805;49.006;8.514;2023-12-20T11:21:00;8.83;;;4.10;;
7527;SDS011;3805;49.006;8.514;2023-12-20T11:23:29;4.00;;;3.70;;
7527;SDS011;3805;49.006;8.514;2023-12-20T11:25:57;5.00;;;4.50;;
7527;SDS011;3805;49.006;8.514;2023-12-20T11:28:30;6.10;;;4.20;;
7527;SDS011;3805;49.006;8.514;2023-12-20T11:31:00;5.57;;;4.90;;
7527;SDS011;3805;49.006;8.514;2023-12-20T11:33:30;5.00;;;3.93;;
7527;SDS011;3805;49.006;8.514;2023-12-20T11:35:59;4.37;;;3.50;;
7527;SDS011;3805;49.006;8.514;2023-12-20T11:38:27;5.63;;;4.70;;
7527;SDS011;3805;49.006;8.514;2023-12-20T11:40:56;6.13;;;4.30;;
7527;SDS011;3805;49.006;8.514;2023-12-20T11:43:30;6.40;;;4.53;;
7527;SDS011;3805;49.006;8.514;2023-12-20T11:46:04;8.80;;;5.50;;
7527;SDS011;3805;49.006;8.514;2023-12-20T11:48:34;8.07;;;4.73;;
7527;SDS011;3805;49.006;8.514;2023-12-20T11:51:08;6.23;;;4.47;;
7527;SDS011;3805;49.006;8.514;2023-12-20T11:53:37;4.77;;;4.20;;
7527;SDS011;3805;49.006;8.514;2023-12-20T11:56:05;6.57;;;4.60;;
7527;SDS011;3805;49.006;8.514;2023-12-20T11:58:34;9.80;;;6.10;;
7527;SDS011;3805;49.006;8.514;2023-12-20T12:01:04;11.37;;;4.70;;
7527;SDS011;3805;49.006;8.514;2023-12-20T12:03:35;6.53;;;3.87;;
7527;SDS011;3805;49.006;8.514;2023-12-20T12:06:04;4.97;;;4.50;;
7527;SDS011;3805;49.006;8.514;2023-12-20T12:08:35;8.30;;;4.97;;
7527;SDS011;3805;49.006;8.514;2023-12-20T12:11:05;8.10;;;4.73;;
7527;SDS011;3805;49.006;8.514;2023-12-20T12:13:33;11.20;;;4.20;;
7527;SDS011;3805;49.006;8.514;2023-12-20T12:16:02;4.77;;;4.10;;
7527;SDS011;3805;49.006;8.514;2023-12-20T12:18:32;8.70;;;3.93;;
7527;SDS011;3805;49.006;8.514;2023-12-20T12:21:01;7.40;;;4.17;;
7527;SDS011;3805;49.006;8.514;2023-12-20T12:23:32;6.93;;;4.10;;
7527;SDS011;3805;49.006;8.514;2023-12-20T12:26:03;5.83;;;3.67;;
7527;SDS011;3805;49.006;8.514;2023-12-20T12:28:31;4.23;;;3.67;;
7527;SDS011;3805;49.006;8.514;2023-12-20T12:31:04;7.70;;;4.00;;
7527;SDS011;3805;49.006;8.514;2023-12-20T12:33:34;10.37;;;4.50;;
7527;SDS011;3805;49.006;8.514;2023-12-20T12:36:03;7.67;;;4.53;;
7527;SDS011;3805;49.006;8.514;2023-12-20T12:38:34;6.90;;;4.30;;
7527;SDS011;3805;49.006;8.514;2023-12-20T12:41:02;4.97;;;4.37;;
7527;SDS011;3805;49.006;8.514;2023-12-20T12:43:32;9.83;;;3.90;;
7527;SDS011;3805;49.006;8.514;2023-12-20T12:46:02;11.60;;;4.00;;
7527;SDS011;3805;49.006;8.514;2023-12-20T12:48:31;7.50;;;3.60;;
7527;SDS011;3805;49.006;8.514;2023-12-20T12:51:02;10.10;;;4.20;;
7527;SDS011;3805;49.006;8.514;2023-12-20T12:53:30;7.17;;;4.10;;
7527;SDS011;3805;49.006;8.514;2023-12-20T12:55:58;5.13;;;3.20;;
7527;SDS011;3805;49.006;8.514;2023-12-20T12:58:27;8.23;;;3.90;;
7527;SDS011;3805;49.006;8.514;2023-12-20T13:00:55;7.03;;;3.30;;
7527;SDS011;3805;49.006;8.514;2023-12-20T13:03:23;5.13;;;3.87;;
7527;SDS011;3805;49.006;8.514;2023-12-20T13:05:52;10.80;;;4.50;;
7527;SDS011;3805;49.006;8.514;2023-12-20T13:08:22;8.43;;;4.43;;
7527;SDS011;3805;49.006;8.514;2023-12-20T13:10:50;6.27;;;3.53;;
7527;SDS011;3805;49.006;8.514;2023-12-20T13:13:18;4.20;;;3.30;;
7527;SDS011;3805;49.006;8.514;2023-12-20T13:15:46;8.73;;;3.27;;
7527;SDS011;3805;49.006;8.514;2023-12-20T13:18:19;6.53;;;4.00;;
7527;SDS011;3805;49.006;8.514;2023-12-20T13:20:48;5.13;;;4.00;;
7527;SDS011;3805;49.006;8.514;2023-12-20T13:23:16;7.10;;;3.67;;
7527;SDS011;3805;49.006;8.514;2023-12-20T13:25:47;10.77;;;3.47;;
7527;SDS011;3805;49.006;8.514;2023-12-20T13:28:15;9.30;;;3.97;;
7527;SDS011;3805;49.006;8.514;2023-12-20T13:30:44;10.17;;;4.30;;
7527;SDS011;3805;49.006;8.514;2023-12-20T13:33:12;6.97;;;3.90;;
7527;SDS011;3805;49.006;8.514;2023-12-20T13:35:41;14.60;;;3.67;;
7527;SDS011;3805;49.006;8.514;2023-12-20T13:38:09;8.80;;;3.90;;
7527;SDS011;3805;49.006;8.514;2023-12-20T13:40:37;7.10;;;4.60;;
7527;SDS011;3805;49.006;8.514;2023-12-20T13:43:07;5.23;;;4.13;;
7527;SDS011;3805;49.006;8.514;2023-12-20T13:45:35;7.93;;;3.30;;
7527;SDS011;3805;49.006;8.514;2023-12-20T13:48:04;11.43;;;4.17;;
7527;SDS011;3805;49.006;8.514;2023-12-20T13:50:33;7.50;;;3.63;;
7527;SDS011;3805;49.006;8.514;2023-12-20T13:53:01;6.03;;;3.50;;
7527;SDS011;3805;49.006;8.514;2023-12-20T13:55:31;3.50;;;3.20;;
7527;SDS011;3805;49.006;8.514;2023-12-20T13:57:59;7.67;;;3.33;;
7527;SDS011;3805;49.006;8.514;2023-12-20T14:00:29;5.70;;;4.37;;
7527;SDS011;3805;49.006;8.514;2023-12-20T14:02:57;10.80;;;4.57;;
7527;SDS011;3805;49.006;8.514;2023-12-20T14:05:26;6.67;;;3.40;;
7527;SDS011;3805;49.006;8.514;2023-12-20T14:07:55;4.53;;;4.13;;
7527;SDS011;3805;49.006;8.514;2023-12-20T14:10:25;7.27;;;3.90;;
7527;SDS011;3805;49.006;8.514;2023-12-20T14:12:54;5.93;;;3.80;;
7527;SDS011;3805;49.006;8.514;2023-12-20T14:15:23;7.43;;;4.23;;
7527;SDS011;3805;49.006;8.514;2023-12-20T14:17:54;8.77;;;4.17;;
7527;SDS011;3805;49.006;8.514;2023-12-20T14:20:22;10.53;;;3.83;;
7527;SDS011;3805;49.006;8.514;2023-12-20T14:22:51;6.70;;;3.47;;
7527;SDS011;3805;49.006;8.514;2023-12-20T14:25:28;8.60;;;4.30;;
7527;SDS011;3805;49.006;8.514;2023-12-20T14:28:04;6.97;;;3.73;;
7527;SDS011;3805;49.006;8.514;2023-12-20T14:30:33;9.23;;;4.70;;
7527;SDS011;3805;49.006;8.514;2023-12-20T14:33:03;18.07;;;4.33;;
7527;SDS011;3805;49.006;8.514;2023-12-20T14:35:32;8.07;;;4.40;;
7527;SDS011;3805;49.006;8.514;2023-12-20T14:38:00;6.37;;;3.50;;
7527;SDS011;3805;49.006;8.514;2023-12-20T14:40:29;5.03;;;3.80;;
7527;SDS011;3805;49.006;8.514;2023-12-20T14:42:57;3.77;;;3.40;;
7527;SDS011;3805;49.006;8.514;2023-12-20T14:45:26;11.07;;;3.70;;
7527;SDS011;3805;49.006;8.514;2023-12-20T14:47:54;8.80;;;4.07;;
7527;SDS011;3805;49.006;8.514;2023-12-20T14:50:24;6.20;;;3.40;;
7527;SDS011;3805;49.006;8.514;2023-12-20T14:52:52;15.80;;;4.80;;
7527;SDS011;3805;49.006;8.514;2023-12-20T14:55:22;5.60;;;4.20;;
7527;SDS011;3805;49.006;8.514;2023-12-20T14:57:50;7.93;;;3.40;;
7527;SDS011;3805;49.006;8.514;2023-12-20T15:00:24;6.43;;;4.57;;
7527;SDS011;3805;49.006;8.514;2023-12-20T15:02:52;9.77;;;5.07;;
7527;SDS011;3805;49.006;8.514;2023-12-20T15:05:21;11.00;;;3.40;;
7527;SDS011;3805;49.006;8.514;2023-12-20T15:07:52;14.63;;;4.07;;
7527;SDS011;3805;49.006;8.514;2023-12-20T15:10:23;6.40;;;4.17;;
7527;SDS011;3805;49.006;8.514;2023-12-20T15:12:51;6.23;;;4.13;;
7527;SDS011;3805;49.006;8.514;2023-12-20T15:15:19;10.60;;;3.93;;
7527;SDS011;3805;49.006;8.514;2023-12-20T15:17:47;9.30;;;4.30;;
7527;SDS011;3805;49.006;8.514;2023-12-20T15:20:15;11.53;;;3.60;;
7527;SDS011;3805;49.006;8.514;2023-12-20T15:22:44;7.70;;;4.27;;
7527;SDS011;3805;49.006;8.514;2023-12-20T15:25:14;14.43;;;8.63;;
7527;SDS011;3805;49.006;8.514;2023-12-20T15:27:48;13.40;;;3.80;;
7527;SDS011;3805;49.006;8.514;2023-12-20T15:30:19;15.17;;;4.77;;
7527;SDS011;3805;49.006;8.514;2023-12-20T15:32:48;8.50;;;3.87;;